createdAt,value
2018-07-10T00:02:19.372Z,1.50
2018-07-10T00:15:42.221Z,1.50
2018-07-10T00:18:13.106Z,1.43
2018-07-10T00:20:44.307Z,1.33
2018-07-10T00:23:14.080Z,1.70
2018-07-10T00:25:45.350Z,1.57
2018-07-10T00:28:14.830Z,1.50
2018-07-10T00:30:46.026Z,1.50
2018-07-10T00:33:16.971Z,1.67
2018-07-10T00:35:51.009Z,1.27
2018-07-10T00:38:31.390Z,1.17
2018-07-10T00:41:00.982Z,1.20
2018-07-10T00:43:30.731Z,1.30
2018-07-10T00:46:03.060Z,1.40
2018-07-10T00:48:33.204Z,1.50
2018-07-10T00:51:04.101Z,1.30
2018-07-10T00:53:34.253Z,1.40
2018-07-10T00:56:11.145Z,1.40
2018-07-10T00:58:40.651Z,1.20
2018-07-10T01:01:11.195Z,1.37
2018-07-10T01:03:40.427Z,1.33
2018-07-10T01:06:20.514Z,1.30
2018-07-10T01:08:52.644Z,1.30
2018-07-10T01:11:22.869Z,1.60
2018-07-10T01:13:52.413Z,1.30
2018-07-10T01:16:38.145Z,1.30
2018-07-10T01:19:10.763Z,1.30
2018-07-10T01:21:42.814Z,1.10
2018-07-10T01:24:12.138Z,1.30
2018-07-10T01:26:43.897Z,1.47
2018-07-10T01:29:22.575Z,1.30
2018-07-10T01:31:57.821Z,1.60
2018-07-10T01:34:28.691Z,1.57
2018-07-10T01:37:02.116Z,1.37
2018-07-10T01:39:32.095Z,1.33
2018-07-10T01:42:02.656Z,1.20
2018-07-10T01:44:32.495Z,1.27
2018-07-10T01:47:02.679Z,1.17
2018-07-10T01:49:33.495Z,1.33
2018-07-10T01:52:04.374Z,1.10
2018-07-10T01:54:35.222Z,1.10
2018-07-10T01:57:14.597Z,1.10
2018-07-10T01:59:43.854Z,1.50
2018-07-10T02:02:14.184Z,1.20
2018-07-10T02:04:43.951Z,1.47
2018-07-10T02:07:13.815Z,1.47
2018-07-10T02:09:44.536Z,1.20
2018-07-10T02:12:15.110Z,1.17
2018-07-10T02:14:45.932Z,1.10
2018-07-10T02:17:30.047Z,1.37
2018-07-10T02:20:01.020Z,1.30
2018-07-10T02:22:31.417Z,1.30
2018-07-10T02:25:02.463Z,1.30
2018-07-10T02:27:33.043Z,1.43
2018-07-10T02:30:02.300Z,1.40
2018-07-10T02:32:32.036Z,1.40
2018-07-10T02:35:02.441Z,1.70
2018-07-10T02:37:32.975Z,1.30
2018-07-10T02:40:03.584Z,1.30
2018-07-10T02:42:33.654Z,1.07
2018-07-10T02:45:04.373Z,1.30
2018-07-10T02:47:35.803Z,1.50
2018-07-10T02:50:06.662Z,1.07
2018-07-10T02:52:43.226Z,1.20
2018-07-10T02:55:13.629Z,1.50
2018-07-10T02:57:56.970Z,1.30
2018-07-10T03:00:27.115Z,1.30
2018-07-10T03:02:56.914Z,1.40
2018-07-10T03:05:27.359Z,1.40
2018-07-10T03:08:00.494Z,1.40
2018-07-10T03:10:32.272Z,1.20
2018-07-10T03:13:03.880Z,1.60
2018-07-10T03:15:35.716Z,1.60
2018-07-10T03:18:07.074Z,1.13
2018-07-10T03:20:37.354Z,1.30
2018-07-10T03:23:07.287Z,1.40
2018-07-10T03:25:37.036Z,1.60
2018-07-10T03:28:07.981Z,1.47
2018-07-10T03:30:38.209Z,1.40
2018-07-10T03:33:07.801Z,1.50
2018-07-10T03:35:38.287Z,1.70
2018-07-10T03:38:21.498Z,1.37
2018-07-10T03:40:52.330Z,1.53
2018-07-10T03:43:23.105Z,1.40
2018-07-10T03:45:53.619Z,1.57
2018-07-10T03:48:25.346Z,1.70
2018-07-10T03:50:57.663Z,1.40
2018-07-10T03:53:29.347Z,1.30
2018-07-10T03:56:01.050Z,1.40
2018-07-10T03:58:32.873Z,1.40
2018-07-10T04:01:04.217Z,1.13
2018-07-10T04:03:34.867Z,1.20
2018-07-10T04:06:06.887Z,1.50
2018-07-10T04:08:38.351Z,1.30
2018-07-10T04:11:08.563Z,1.50
2018-07-10T04:13:41.090Z,1.60
2018-07-10T04:16:12.882Z,1.87
2018-07-10T04:18:51.592Z,1.60
2018-07-10T04:21:25.673Z,1.70
2018-07-10T04:24:05.319Z,1.50
2018-07-10T04:26:37.822Z,1.60
2018-07-10T04:29:19.834Z,1.50
2018-07-10T04:32:00.250Z,1.47
2018-07-10T04:34:34.131Z,1.47
2018-07-10T04:37:09.391Z,1.37
2018-07-10T04:39:44.424Z,1.77
2018-07-10T04:42:20.421Z,1.70
2018-07-10T04:45:13.821Z,1.57
2018-07-10T04:47:50.662Z,1.60
2018-07-10T04:50:34.795Z,1.37
2018-07-10T04:53:17.815Z,1.70
2018-07-10T04:55:47.829Z,1.43
2018-07-10T04:58:21.443Z,1.60
2018-07-10T05:01:04.584Z,1.23
2018-07-10T05:03:34.789Z,1.63
2018-07-10T05:06:06.247Z,1.70
2018-07-10T05:08:37.138Z,1.93
2018-07-10T05:11:12.654Z,1.70
2018-07-10T05:13:42.647Z,1.50
2018-07-10T05:16:14.407Z,1.60
2018-07-10T05:18:47.202Z,1.80
2018-07-10T05:21:18.123Z,1.47
2018-07-10T05:23:48.204Z,1.67
2018-07-10T05:26:20.632Z,1.50
2018-07-10T05:28:52.530Z,1.60
2018-07-10T05:31:23.780Z,2.00
2018-07-10T05:33:53.859Z,1.50
2018-07-10T05:36:26.010Z,1.50
2018-07-10T05:38:58.935Z,1.80
2018-07-10T05:41:33.289Z,1.80
2018-07-10T05:44:04.403Z,1.47
2018-07-10T05:46:34.898Z,1.53
2018-07-10T05:49:05.431Z,1.40
2018-07-10T05:51:45.633Z,1.70
2018-07-10T05:54:16.703Z,1.77
2018-07-10T05:56:46.012Z,2.00
2018-07-10T05:59:16.261Z,1.53
2018-07-10T06:01:53.590Z,1.57
2018-07-10T06:04:23.298Z,1.53
2018-07-10T06:06:53.660Z,1.50
2018-07-10T06:09:24.174Z,1.70
2018-07-10T06:12:01.641Z,1.73
2018-07-10T06:14:31.201Z,1.97
2018-07-10T06:17:00.836Z,1.60
2018-07-10T06:19:31.823Z,1.77
2018-07-10T06:22:05.731Z,1.60
2018-07-10T06:24:36.331Z,1.87
2018-07-10T06:27:08.109Z,1.97
2018-07-10T06:29:59.219Z,1.70
2018-07-10T06:32:35.043Z,1.90
2018-07-10T06:35:10.833Z,1.60
2018-07-10T06:37:43.647Z,1.70
2018-07-10T06:40:14.699Z,1.40
2018-07-10T06:43:53.630Z,1.53
2018-07-10T06:46:30.427Z,1.73
2018-07-10T06:49:13.294Z,1.60
2018-07-10T06:51:43.315Z,1.63
2018-07-10T06:54:20.326Z,1.87
2018-07-10T06:56:50.195Z,1.60
2018-07-10T06:59:20.950Z,1.70
2018-07-10T07:01:51.513Z,1.60
2018-07-10T07:04:22.448Z,1.50
2018-07-10T07:06:53.687Z,1.90
2018-07-10T07:09:23.523Z,1.40
2018-07-10T07:11:57.273Z,1.90
2018-07-10T07:14:28.847Z,1.40
2018-07-10T07:16:59.032Z,1.70
2018-07-10T07:19:28.919Z,1.87
2018-07-10T07:21:59.500Z,2.20
2018-07-10T07:24:30.215Z,2.30
2018-07-10T07:27:00.088Z,2.20
2018-07-10T07:29:31.757Z,2.13
2018-07-10T07:32:01.054Z,2.10
2018-07-10T07:34:33.587Z,1.90
2018-07-10T07:37:03.542Z,2.23
2018-07-10T07:39:33.829Z,2.13
2018-07-10T07:42:03.494Z,2.37
2018-07-10T07:44:34.281Z,2.20
2018-07-10T07:47:04.016Z,2.20
2018-07-10T07:49:35.137Z,2.30
2018-07-10T07:52:04.663Z,2.20
2018-07-10T07:54:47.466Z,2.00
2018-07-10T07:57:18.661Z,2.30
2018-07-10T07:59:48.330Z,2.23
2018-07-10T08:02:18.560Z,2.40
2018-07-10T08:05:00.632Z,2.07
2018-07-10T08:07:30.162Z,1.97
2018-07-10T08:10:00.730Z,2.70
2018-07-10T08:12:31.167Z,2.73
2018-07-10T08:15:03.740Z,3.70
2018-07-10T08:17:37.295Z,3.50
2018-07-10T08:20:07.629Z,3.63
2018-07-10T08:22:37.525Z,3.40
2018-07-10T08:25:09.263Z,4.23
2018-07-10T08:27:39.327Z,3.57
2018-07-10T08:30:10.315Z,3.90
2018-07-10T08:32:40.504Z,3.97
2018-07-10T08:35:11.395Z,3.80
2018-07-10T08:37:41.146Z,3.63
2018-07-10T08:40:11.451Z,3.73
2018-07-10T08:42:40.790Z,3.83
2018-07-10T08:45:13.557Z,3.93
2018-07-10T08:47:44.182Z,4.07
2018-07-10T08:50:14.112Z,3.70
2018-07-10T08:52:45.235Z,3.93
2018-07-10T08:55:15.825Z,4.20
2018-07-10T08:57:45.926Z,4.30
2018-07-10T09:00:15.572Z,4.03
2018-07-10T09:02:45.671Z,3.50
2018-07-10T09:05:25.491Z,3.73
2018-07-10T09:07:56.645Z,3.47
2018-07-10T09:10:27.553Z,3.80
2018-07-10T09:12:58.720Z,4.20
2018-07-10T09:15:48.741Z,4.27
2018-07-10T09:18:18.709Z,4.03
2018-07-10T09:20:51.310Z,4.03
2018-07-10T09:23:22.036Z,4.20
2018-07-10T09:26:00.588Z,4.10
2018-07-10T09:28:34.986Z,4.90
2018-07-10T09:31:06.382Z,4.80
2018-07-10T09:33:36.401Z,5.27
2018-07-10T09:36:07.012Z,5.67
2018-07-10T09:38:37.202Z,5.07
2018-07-10T09:41:08.103Z,5.13
2018-07-10T09:43:38.409Z,6.30
2018-07-10T09:46:12.539Z,6.10
2018-07-10T09:48:43.178Z,6.27
2018-07-10T09:51:12.818Z,5.17
2018-07-10T09:53:44.012Z,5.43
2018-07-10T09:56:15.116Z,6.03
2018-07-10T09:58:46.351Z,5.87
2018-07-10T10:01:21.270Z,5.33
2018-07-10T10:03:51.478Z,5.30
2018-07-10T10:06:23.773Z,5.40
2018-07-10T10:08:54.996Z,4.90
2018-07-10T10:11:26.903Z,4.60
2018-07-10T10:13:57.171Z,4.53
2018-07-10T10:16:37.034Z,4.27
2018-07-10T10:19:07.810Z,3.67
2018-07-10T10:21:37.960Z,4.47
2018-07-10T10:24:07.983Z,4.57
2018-07-10T10:26:46.598Z,4.20
2018-07-10T10:29:18.019Z,6.40
2018-07-10T10:31:49.244Z,6.00
2018-07-10T10:34:19.438Z,5.03
2018-07-10T10:36:51.155Z,5.47
2018-07-10T10:39:21.798Z,4.80
2018-07-10T10:41:52.868Z,6.17
2018-07-10T10:44:25.157Z,6.67
2018-07-10T10:47:04.436Z,7.80
2018-07-10T10:49:35.682Z,8.17
2018-07-10T10:52:06.076Z,7.73
2018-07-10T10:54:36.469Z,5.40
2018-07-10T10:57:08.024Z,6.03
2018-07-10T10:59:38.839Z,5.47
2018-07-10T11:02:09.686Z,4.33
2018-07-10T11:04:40.778Z,5.13
2018-07-10T11:10:11.642Z,5.20
2018-07-10T11:12:42.775Z,4.87
2018-07-10T11:15:14.171Z,4.83
2018-07-10T11:18:02.090Z,4.10
2018-07-10T11:20:49.101Z,5.37
2018-07-10T11:23:56.244Z,4.17
2018-07-10T11:26:38.921Z,4.67
2018-07-10T11:29:22.824Z,4.47
2018-07-10T11:31:53.170Z,4.20
2018-07-10T11:34:22.988Z,4.13
2018-07-10T11:36:53.342Z,4.20
2018-07-10T11:39:24.821Z,4.53
2018-07-10T11:41:55.658Z,4.03
2018-07-10T11:44:26.022Z,4.63
2018-07-10T11:46:56.916Z,4.00
2018-07-10T11:49:29.013Z,4.00
2018-07-10T11:51:59.711Z,4.70
2018-07-10T11:54:30.360Z,3.87
2018-07-10T11:57:01.300Z,4.70
2018-07-10T11:59:32.433Z,4.23
2018-07-10T12:02:08.803Z,4.13
2018-07-10T12:04:40.619Z,3.87
2018-07-10T12:07:10.662Z,3.93
2018-07-10T12:11:06.707Z,4.30
2018-07-10T12:13:36.647Z,4.13
2018-07-10T12:16:06.677Z,4.17
2018-07-10T12:18:36.429Z,4.70
2018-07-10T12:21:12.383Z,4.43
2018-07-10T12:23:43.005Z,3.80
2018-07-10T12:26:13.171Z,3.87
2018-07-10T12:28:43.448Z,4.00
2018-07-10T12:31:14.032Z,3.67
2018-07-10T12:33:43.696Z,3.77
2018-07-10T12:36:14.015Z,4.20
2018-07-10T12:38:43.330Z,4.40
2018-07-10T12:41:14.997Z,4.07
2018-07-10T12:43:50.013Z,4.00
2018-07-10T12:46:19.311Z,4.40
2018-07-10T12:48:48.749Z,4.30
2018-07-10T12:51:25.375Z,3.90
2018-07-10T12:53:55.174Z,4.43
2018-07-10T12:56:24.837Z,3.57
2018-07-10T12:58:55.084Z,4.10
2018-07-10T13:01:24.370Z,4.07
2018-07-10T13:03:53.993Z,3.53
2018-07-10T13:06:23.953Z,3.50
2018-07-10T13:08:53.836Z,3.43
2018-07-10T13:11:24.765Z,3.10
2018-07-10T13:13:55.123Z,3.40
2018-07-10T13:16:24.415Z,3.00
2018-07-10T13:18:58.335Z,3.43
2018-07-10T13:21:31.047Z,3.10
2018-07-10T13:24:01.070Z,3.23
2018-07-10T13:26:31.589Z,3.47
2018-07-10T13:29:01.167Z,3.50
2018-07-10T13:31:44.258Z,3.13
2018-07-10T13:34:13.678Z,2.80
2018-07-10T13:36:43.185Z,3.13
2018-07-10T13:39:13.379Z,3.17
2018-07-10T13:41:43.703Z,2.70
2018-07-10T13:44:14.058Z,3.10
2018-07-10T13:46:44.359Z,3.20
2018-07-10T13:49:14.388Z,2.57
2018-07-10T13:51:44.850Z,2.80
2018-07-10T13:54:14.832Z,2.83
2018-07-10T13:56:49.227Z,3.07
2018-07-10T13:59:21.926Z,3.13
2018-07-10T14:01:51.743Z,2.40
2018-07-10T14:04:21.400Z,2.80
2018-07-10T14:06:50.658Z,2.73
2018-07-10T14:09:20.523Z,2.47
2018-07-10T14:11:49.826Z,2.53
2018-07-10T14:14:20.146Z,2.33
2018-07-10T14:16:49.539Z,3.37
2018-07-10T14:19:19.910Z,2.40
2018-07-10T14:21:59.051Z,2.30
2018-07-10T14:24:29.262Z,2.40
2018-07-10T14:27:01.546Z,2.30
2018-07-10T14:29:30.860Z,2.40
2018-07-10T14:32:14.299Z,2.00
2018-07-10T14:34:44.336Z,2.13
2018-07-10T14:37:14.351Z,1.90
2018-07-10T14:39:44.582Z,1.40
2018-07-10T14:42:14.463Z,1.90
2018-07-10T14:44:44.004Z,1.87
2018-07-10T14:47:14.650Z,1.67
2018-07-10T14:49:44.436Z,1.60
2018-07-10T14:52:13.761Z,1.83
2018-07-10T14:54:43.950Z,2.03
2018-07-10T14:57:14.327Z,1.83
2018-07-10T14:59:45.097Z,1.73
2018-07-10T15:02:17.423Z,1.70
2018-07-10T15:04:47.163Z,1.27
2018-07-10T15:07:17.478Z,1.53
2018-07-10T15:09:47.808Z,1.30
2018-07-10T15:12:19.967Z,1.50
2018-07-10T15:14:50.784Z,1.40
2018-07-10T15:17:25.744Z,1.57
2018-07-10T15:19:55.434Z,1.50
2018-07-10T15:22:27.090Z,1.23
2018-07-10T15:24:57.547Z,1.30
2018-07-10T15:27:26.872Z,1.50
2018-07-10T15:29:56.485Z,1.70
2018-07-10T15:32:26.717Z,1.43
2018-07-10T15:34:56.087Z,1.40
2018-07-10T15:37:25.594Z,1.27
2018-07-10T15:39:55.918Z,1.40
2018-07-10T15:42:25.707Z,1.70
2018-07-10T15:44:55.059Z,1.50
2018-07-10T15:47:24.401Z,1.57
2018-07-10T15:49:53.954Z,2.17
2018-07-10T15:52:47.202Z,1.83
2018-07-10T15:55:16.514Z,1.90
2018-07-10T15:57:47.048Z,1.83
2018-07-10T16:00:16.675Z,1.60
2018-07-10T16:02:48.006Z,1.70
2018-07-10T16:05:17.986Z,3.83
2018-07-10T16:07:50.567Z,2.20
2018-07-10T16:10:21.027Z,1.80
2018-07-10T16:13:00.145Z,1.73
2018-07-10T16:15:30.992Z,2.03
2018-07-10T16:18:07.867Z,4.33
2018-07-10T16:20:41.213Z,5.03
2018-07-10T16:23:13.467Z,2.90
2018-07-10T16:25:47.010Z,2.70
2018-07-10T16:28:18.550Z,1.80
2018-07-10T16:30:49.430Z,1.50
2018-07-10T16:33:30.065Z,1.57
2018-07-10T16:36:01.765Z,1.43
2018-07-10T16:38:33.284Z,1.60
2018-07-10T16:41:09.283Z,1.33
2018-07-10T16:43:40.747Z,1.60
2018-07-10T16:46:11.883Z,1.80
2018-07-10T16:48:51.714Z,1.30
2018-07-10T16:51:37.598Z,1.30
2018-07-10T16:54:08.735Z,1.40
2018-07-10T16:56:39.306Z,1.40
2018-07-10T16:59:10.542Z,1.30
2018-07-10T17:01:40.647Z,1.30
2018-07-10T17:04:13.535Z,1.30
2018-07-10T17:06:43.955Z,1.10
2018-07-10T17:09:13.418Z,1.00
2018-07-10T17:11:43.082Z,1.20
2018-07-10T17:14:14.289Z,1.30
2018-07-10T17:16:45.069Z,0.97
2018-07-10T17:19:15.255Z,1.30
2018-07-10T17:21:46.235Z,1.20
2018-07-10T17:24:18.235Z,1.10
2018-07-10T17:26:49.737Z,1.03
2018-07-10T17:29:26.082Z,1.30
2018-07-10T17:31:55.592Z,1.70
2018-07-10T17:34:25.827Z,1.20
2018-07-10T17:36:55.707Z,1.30
2018-07-10T17:39:27.774Z,1.40
2018-07-10T17:41:57.080Z,1.17
2018-07-10T17:44:35.494Z,1.30
2018-07-10T17:47:05.755Z,0.90
2018-07-10T17:49:39.065Z,1.43
2018-07-10T17:52:08.558Z,1.20
2018-07-10T17:54:38.543Z,1.37
2018-07-10T17:57:07.841Z,0.90
2018-07-10T17:59:37.055Z,1.10
2018-07-10T18:02:07.332Z,1.27
2018-07-10T18:04:37.593Z,1.10
2018-07-10T18:07:08.122Z,1.17
2018-07-10T18:09:38.424Z,1.20
2018-07-10T18:12:08.738Z,1.10
2018-07-10T18:14:42.286Z,1.00
2018-07-10T18:17:12.299Z,1.00
2018-07-10T18:19:42.811Z,1.17
2018-07-10T18:22:12.328Z,1.20
2018-07-10T18:24:42.793Z,1.00
2018-07-10T18:27:13.569Z,1.10
2018-07-10T18:29:43.215Z,1.30
2018-07-10T18:32:13.294Z,1.20
2018-07-10T18:34:44.360Z,0.90
2018-07-10T18:37:14.393Z,1.20
2018-07-10T18:39:46.201Z,0.90
2018-07-10T18:42:15.984Z,1.30
2018-07-10T18:44:48.718Z,1.10
2018-07-10T18:47:19.257Z,1.17
2018-07-10T18:49:52.356Z,1.30
2018-07-10T18:52:25.172Z,1.40
2018-07-10T18:54:56.847Z,1.40
2018-07-10T19:01:56.997Z,1.40
2018-07-10T19:05:49.240Z,1.30
2018-07-10T19:08:18.812Z,1.20
2018-07-10T19:10:48.557Z,1.43
2018-07-10T19:13:18.366Z,1.33
2018-07-10T19:15:50.119Z,1.20
2018-07-10T19:18:19.970Z,1.20
2018-07-10T19:21:05.994Z,1.40
2018-07-10T19:23:42.433Z,1.30
2018-07-10T19:26:13.872Z,1.33
2018-07-10T19:28:45.704Z,1.17
2018-07-10T19:31:18.587Z,1.27
2018-07-10T19:33:55.904Z,1.20
2018-07-10T19:36:29.167Z,1.07
2018-07-10T19:38:59.302Z,1.00
2018-07-10T19:41:28.628Z,1.10
2018-07-10T19:43:58.802Z,1.10
2018-07-10T19:46:31.694Z,1.17
2018-07-10T19:49:04.799Z,1.27
2018-07-10T19:51:35.009Z,1.10
2018-07-10T19:54:09.777Z,1.20
2018-07-10T19:56:39.477Z,1.00
2018-07-10T19:59:11.904Z,1.10
2018-07-10T20:01:58.738Z,0.80
2018-07-10T20:04:40.942Z,1.20
2018-07-10T20:07:17.156Z,1.30
2018-07-10T20:09:51.183Z,1.30
2018-07-10T20:12:30.069Z,1.40
2018-07-10T20:16:08.407Z,1.27
2018-07-10T20:19:15.519Z,0.90
2018-07-10T20:21:57.308Z,1.20
2018-07-10T20:24:28.291Z,1.20
2018-07-10T20:27:34.008Z,1.20
2018-07-10T20:30:14.974Z,1.20
2018-07-10T20:32:53.421Z,1.00
2018-07-10T20:35:28.714Z,1.10
2018-07-10T20:38:01.816Z,1.20
2018-07-10T20:40:39.031Z,1.00
2018-07-10T20:43:17.493Z,0.80
2018-07-10T20:45:54.481Z,1.20
2018-07-10T20:48:43.900Z,1.23
2018-07-10T20:51:14.345Z,1.17
2018-07-10T20:54:01.815Z,1.10
2018-07-10T21:05:13.038Z,1.03
2018-07-10T21:07:57.368Z,1.00
2018-07-10T21:10:34.811Z,1.20
2018-07-10T21:13:10.368Z,1.30
2018-07-10T21:16:35.631Z,1.20
2018-07-10T21:19:20.548Z,1.13
2018-07-10T21:22:11.908Z,1.00
2018-07-10T21:24:46.662Z,1.20
2018-07-10T21:29:29.994Z,1.20
2018-07-10T21:32:05.639Z,1.07
2018-07-10T21:34:50.171Z,1.10
2018-07-10T21:43:47.204Z,0.90
2018-07-10T21:46:45.989Z,1.30
2018-07-10T21:49:50.393Z,1.10
2018-07-10T21:52:29.040Z,1.37
2018-07-10T21:54:59.734Z,1.33
2018-07-10T21:57:38.110Z,1.30
2018-07-10T22:00:09.378Z,1.03
2018-07-10T22:02:46.370Z,1.00
2018-07-10T22:05:16.281Z,1.00
2018-07-10T22:07:47.198Z,1.40
2018-07-10T22:10:18.687Z,0.90
2018-07-10T22:12:55.819Z,1.27
2018-07-10T22:15:29.697Z,0.90
2018-07-10T22:18:02.717Z,1.23
2018-07-10T22:20:36.442Z,1.10
2018-07-10T22:23:10.748Z,1.30
2018-07-10T22:25:41.125Z,1.23
2018-07-10T22:28:11.563Z,1.10
2018-07-10T22:30:47.835Z,1.20
2018-07-10T22:33:18.014Z,1.27
2018-07-10T22:35:48.857Z,1.20
2018-07-10T22:38:19.454Z,1.50
2018-07-10T22:40:48.676Z,1.40
2018-07-10T22:43:19.500Z,1.10
2018-07-10T22:45:49.290Z,1.30
2018-07-10T22:48:18.538Z,1.30
2018-07-10T22:50:48.146Z,1.50
2018-07-10T22:53:19.149Z,1.10
2018-07-10T22:55:48.973Z,1.43
2018-07-10T22:58:19.324Z,1.10
2018-07-10T23:00:49.476Z,1.13
2018-07-10T23:03:21.975Z,1.40
2018-07-10T23:05:52.439Z,1.27
2018-07-10T23:08:35.986Z,1.50
2018-07-10T23:11:06.664Z,1.10
2018-07-10T23:13:44.846Z,1.60
2018-07-10T23:16:14.086Z,1.30
2018-07-10T23:18:44.639Z,1.33
2018-07-10T23:21:15.999Z,1.23
2018-07-10T23:24:02.348Z,1.53
2018-07-10T23:26:32.372Z,1.70
2018-07-10T23:29:03.452Z,1.47
2018-07-10T23:31:32.946Z,1.47
2018-07-10T23:34:16.485Z,1.47
2018-07-10T23:36:52.139Z,2.07
2018-07-10T23:39:27.959Z,2.00
2018-07-10T23:42:05.011Z,2.13
2018-07-10T23:44:42.971Z,1.80
2018-07-10T23:47:20.593Z,1.70
2018-07-10T23:50:03.923Z,2.30
2018-07-10T23:52:43.763Z,1.67
2018-07-10T23:55:15.242Z,2.23
2018-07-10T23:57:45.039Z,1.63
